createdAt,value
2019-03-25T00:03:26.845Z,49.80
2019-03-25T00:05:54.907Z,49.92
2019-03-25T00:08:22.947Z,48.33
2019-03-25T00:10:51.780Z,49.72
2019-03-25T00:13:19.825Z,49.13
2019-03-25T00:15:47.903Z,48.67
2019-03-25T00:18:15.951Z,50.00
2019-03-25T00:20:44.780Z,51.10
2019-03-25T00:23:13.039Z,48.72
2019-03-25T00:25:41.842Z,49.28
2019-03-25T00:28:09.999Z,50.75
2019-03-25T00:30:38.782Z,49.17
2019-03-25T00:33:06.875Z,49.08
2019-03-25T00:35:35.023Z,50.80
2019-03-25T00:38:03.100Z,49.58
2019-03-25T00:40:31.163Z,49.22
2019-03-25T00:42:59.954Z,48.75
2019-03-25T00:45:28.123Z,49.08
2019-03-25T00:47:56.919Z,50.07
2019-03-25T00:50:25.079Z,49.80
2019-03-25T00:52:53.164Z,49.28
2019-03-25T00:55:21.296Z,49.35
2019-03-25T00:57:49.277Z,49.20
2019-03-25T01:00:18.808Z,50.43
2019-03-25T01:02:47.047Z,49.42
2019-03-25T01:05:15.863Z,49.63
2019-03-25T01:07:43.996Z,49.65
2019-03-25T01:10:12.047Z,49.10
2019-03-25T01:12:40.174Z,48.95
2019-03-25T01:15:08.351Z,48.75
2019-03-25T01:17:36.415Z,50.37
2019-03-25T01:20:04.467Z,53.60
2019-03-25T01:22:33.271Z,53.53
2019-03-25T01:25:02.601Z,51.72
2019-03-25T01:27:30.124Z,52.85
2019-03-25T01:29:58.214Z,51.37
2019-03-25T01:32:26.255Z,51.15
2019-03-25T01:34:55.180Z,52.30
2019-03-25T01:37:23.239Z,51.08
2019-03-25T01:39:52.032Z,51.43
2019-03-25T01:42:20.094Z,51.92
2019-03-25T01:44:48.887Z,50.80
2019-03-25T01:47:16.943Z,52.55
2019-03-25T01:49:44.952Z,51.07
2019-03-25T01:52:13.192Z,52.45
2019-03-25T01:54:41.234Z,52.47
2019-03-25T01:57:09.267Z,53.03
2019-03-25T01:59:37.320Z,51.67
2019-03-25T02:02:05.383Z,51.65
2019-03-25T02:04:33.441Z,51.03
2019-03-25T02:07:01.615Z,52.03
2019-03-25T02:09:30.928Z,51.47
2019-03-25T02:11:59.723Z,51.00
2019-03-25T02:14:27.779Z,52.20
2019-03-25T02:16:55.861Z,52.63
2019-03-25T02:19:23.906Z,51.90
2019-03-25T02:21:51.978Z,51.03
2019-03-25T02:24:20.018Z,51.47
2019-03-25T02:26:48.146Z,51.80
2019-03-25T02:29:16.198Z,52.28
2019-03-25T02:31:44.279Z,50.55
2019-03-25T02:34:12.348Z,50.78
2019-03-25T02:36:40.430Z,49.92
2019-03-25T02:39:08.587Z,50.08
2019-03-25T02:41:36.642Z,49.67
2019-03-25T02:44:04.719Z,49.38
2019-03-25T02:46:32.782Z,48.58
2019-03-25T02:49:01.705Z,48.65
2019-03-25T02:51:29.747Z,49.55
2019-03-25T02:53:57.788Z,48.97
2019-03-25T02:56:26.607Z,49.55
2019-03-25T02:58:54.678Z,50.85
2019-03-25T03:01:22.750Z,50.05
2019-03-25T03:03:50.790Z,48.50
2019-03-25T03:06:18.837Z,48.28
2019-03-25T03:08:47.654Z,48.42
2019-03-25T03:11:14.931Z,49.45
2019-03-25T03:13:42.995Z,48.45
2019-03-25T03:16:11.070Z,47.53
2019-03-25T03:18:39.138Z,47.75
2019-03-25T03:21:07.190Z,48.00
2019-03-25T03:23:35.286Z,48.13
2019-03-25T03:26:03.358Z,48.72
2019-03-25T03:28:31.435Z,48.50
2019-03-25T03:31:00.347Z,50.60
2019-03-25T03:33:28.428Z,50.00
2019-03-25T03:35:56.473Z,50.60
2019-03-25T03:38:24.630Z,51.95
2019-03-25T03:40:52.663Z,52.10
2019-03-25T03:43:20.736Z,52.42
2019-03-25T03:45:48.775Z,52.45
2019-03-25T03:48:16.821Z,53.80
2019-03-25T03:50:44.899Z,51.67
2019-03-25T03:53:13.058Z,51.53
2019-03-25T03:55:41.099Z,52.03
2019-03-25T03:58:09.931Z,51.67
2019-03-25T04:00:37.983Z,52.88
2019-03-25T04:03:06.079Z,52.80
2019-03-25T04:05:34.140Z,52.93
2019-03-25T04:08:02.806Z,52.17
2019-03-25T04:10:30.758Z,50.17
2019-03-25T04:12:59.676Z,49.17
2019-03-25T04:15:28.475Z,45.40
2019-03-25T04:17:56.503Z,45.55
2019-03-25T04:20:24.535Z,45.57
2019-03-25T04:22:52.654Z,42.92
2019-03-25T04:25:21.486Z,43.70
2019-03-25T04:27:49.623Z,41.20
2019-03-25T04:30:17.716Z,39.40
2019-03-25T04:32:45.796Z,39.70
2019-03-25T04:35:13.820Z,37.87
2019-03-25T04:37:42.624Z,37.13
2019-03-25T04:40:11.415Z,36.37
2019-03-25T04:42:39.459Z,35.35
2019-03-25T04:45:08.293Z,33.83
2019-03-25T04:47:36.347Z,30.52
2019-03-25T04:50:04.406Z,30.48
2019-03-25T04:52:32.442Z,30.15
2019-03-25T04:55:00.531Z,29.60
2019-03-25T04:57:29.337Z,27.55
2019-03-25T04:59:57.410Z,26.83
2019-03-25T05:02:25.455Z,25.42
2019-03-25T05:04:53.495Z,23.77
2019-03-25T05:07:21.537Z,24.60
2019-03-25T05:09:49.687Z,23.48
2019-03-25T05:12:17.738Z,22.65
2019-03-25T05:14:46.657Z,22.15
2019-03-25T05:17:14.727Z,22.13
2019-03-25T05:19:42.784Z,21.27
2019-03-25T05:22:11.174Z,21.67
2019-03-25T05:24:38.945Z,21.02
2019-03-25T05:27:07.017Z,21.48
2019-03-25T05:29:35.062Z,20.92
2019-03-25T05:32:03.142Z,21.80
2019-03-25T05:34:31.271Z,20.42
2019-03-25T05:36:59.310Z,20.52
2019-03-25T05:39:27.378Z,20.67
2019-03-25T05:41:55.411Z,18.65
2019-03-25T05:44:24.235Z,17.98
2019-03-25T05:46:52.279Z,17.95
2019-03-25T05:49:20.336Z,17.60
2019-03-25T05:51:48.362Z,17.97
2019-03-25T05:54:16.411Z,16.87
2019-03-25T05:56:44.568Z,17.08
2019-03-25T05:59:12.631Z,16.83
2019-03-25T06:01:40.704Z,16.63
2019-03-25T06:04:08.743Z,16.50
2019-03-25T06:06:37.569Z,16.20
2019-03-25T06:09:05.614Z,15.80
2019-03-25T06:11:34.451Z,15.82
2019-03-25T06:14:02.459Z,16.03
2019-03-25T06:16:30.540Z,15.25
2019-03-25T06:18:58.562Z,14.90
2019-03-25T06:21:26.590Z,15.57
2019-03-25T06:23:54.683Z,14.65
2019-03-25T06:26:22.731Z,15.20
2019-03-25T06:28:51.544Z,15.32
2019-03-25T06:31:19.582Z,15.38
2019-03-25T06:33:48.503Z,15.32
2019-03-25T06:36:16.547Z,14.98
2019-03-25T06:38:44.601Z,14.73
2019-03-25T06:41:12.697Z,14.87
2019-03-25T06:43:40.740Z,14.50
2019-03-25T06:46:08.792Z,14.98
2019-03-25T06:48:36.899Z,14.32
2019-03-25T06:51:05.733Z,14.00
2019-03-25T06:53:33.774Z,13.15
2019-03-25T06:56:01.856Z,13.57
2019-03-25T06:58:29.901Z,12.63
2019-03-25T07:00:57.988Z,11.90
2019-03-25T07:03:26.102Z,12.18
2019-03-25T07:05:54.160Z,11.65
2019-03-25T07:08:22.203Z,11.23
2019-03-25T07:10:50.260Z,11.12
2019-03-25T07:13:18.326Z,10.48
2019-03-25T07:15:46.413Z,10.15
2019-03-25T07:18:14.586Z,10.13
2019-03-25T07:20:42.654Z,8.90
2019-03-25T07:23:10.731Z,9.77
2019-03-25T07:25:38.789Z,9.73
2019-03-25T07:28:06.971Z,8.75
2019-03-25T07:30:35.024Z,8.88
2019-03-25T07:33:03.043Z,8.60
2019-03-25T07:35:31.124Z,8.60
2019-03-25T07:37:59.155Z,9.23
2019-03-25T07:40:27.210Z,8.32
2019-03-25T07:42:55.271Z,8.18
2019-03-25T07:45:23.355Z,7.37
2019-03-25T07:47:51.411Z,7.12
2019-03-25T07:50:20.249Z,7.18
2019-03-25T07:52:48.296Z,6.90
2019-03-25T07:55:16.346Z,7.07
2019-03-25T07:57:48.572Z,7.18
2019-03-25T08:00:14.069Z,7.10
2019-03-25T08:02:41.275Z,6.68
2019-03-25T08:05:09.330Z,7.28
2019-03-25T08:07:38.187Z,7.07
2019-03-25T08:10:06.220Z,6.90
2019-03-25T08:12:34.272Z,6.53
2019-03-25T08:15:02.324Z,7.22
2019-03-25T08:17:30.532Z,6.60
2019-03-25T08:19:58.562Z,7.32
2019-03-25T08:22:27.396Z,6.68
2019-03-25T08:24:56.267Z,6.10
2019-03-25T08:27:24.336Z,6.65
2019-03-25T08:29:52.373Z,5.97
2019-03-25T08:32:20.428Z,6.03
2019-03-25T08:34:48.448Z,6.47
2019-03-25T08:37:16.529Z,5.82
2019-03-25T08:39:44.606Z,5.50
2019-03-25T08:42:12.655Z,5.40
2019-03-25T08:44:40.747Z,5.03
2019-03-25T08:47:08.803Z,5.47
2019-03-25T08:49:36.888Z,5.28
2019-03-25T08:52:05.657Z,6.20
2019-03-25T08:54:33.695Z,5.55
2019-03-25T08:57:02.502Z,6.37
2019-03-25T08:59:31.316Z,5.65
2019-03-25T09:01:59.362Z,5.00
2019-03-25T09:04:28.264Z,5.05
2019-03-25T09:06:57.151Z,5.50
2019-03-25T09:09:25.203Z,4.70
2019-03-25T09:11:53.360Z,5.53
2019-03-25T09:14:21.331Z,5.03
2019-03-25T09:16:49.487Z,5.22
2019-03-25T09:19:17.491Z,5.07
2019-03-25T09:21:46.410Z,4.50
2019-03-25T09:24:14.430Z,4.80
2019-03-25T09:26:42.472Z,5.12
2019-03-25T09:29:10.506Z,4.87
2019-03-25T09:31:38.543Z,4.87
2019-03-25T09:34:07.350Z,4.82
2019-03-25T09:36:36.168Z,4.78
2019-03-25T09:39:04.195Z,4.68
2019-03-25T09:41:33.024Z,4.50
2019-03-25T09:44:01.088Z,4.70
2019-03-25T09:46:29.135Z,4.80
2019-03-25T09:48:57.228Z,4.80
2019-03-25T09:51:25.292Z,4.75
2019-03-25T09:53:54.127Z,4.50
2019-03-25T09:56:22.146Z,4.53
2019-03-25T09:58:50.187Z,3.72
2019-03-25T10:01:18.243Z,4.05
2019-03-25T10:03:46.356Z,4.30
2019-03-25T10:06:14.426Z,3.83
2019-03-25T10:08:42.519Z,3.80
2019-03-25T10:11:10.570Z,3.62
2019-03-25T10:13:38.661Z,3.60
2019-03-25T10:16:07.440Z,3.10
2019-03-25T10:18:35.499Z,3.40
2019-03-25T10:21:03.573Z,3.62
2019-03-25T10:23:31.675Z,3.42
2019-03-25T10:25:59.705Z,3.57
2019-03-25T10:28:27.752Z,3.45
2019-03-25T10:30:55.779Z,3.70
2019-03-25T10:33:23.819Z,3.50
2019-03-25T10:35:51.859Z,3.40
2019-03-25T10:38:20.119Z,3.10
2019-03-25T10:40:47.935Z,3.72
2019-03-25T10:43:16.724Z,3.67
2019-03-25T10:45:44.801Z,3.45
2019-03-25T10:48:12.831Z,3.00
2019-03-25T10:50:41.631Z,2.90
2019-03-25T10:53:10.435Z,2.92
2019-03-25T10:55:38.508Z,3.00
2019-03-25T10:58:06.549Z,2.60
2019-03-25T11:00:34.586Z,2.85
2019-03-25T11:03:02.627Z,2.60
2019-03-25T11:05:30.666Z,2.72
2019-03-25T11:07:59.490Z,2.72
2019-03-25T11:10:27.518Z,2.90
2019-03-25T11:12:56.318Z,2.87
2019-03-25T11:15:25.141Z,2.50
2019-03-25T11:17:53.188Z,3.03
2019-03-25T11:20:21.218Z,2.60
2019-03-25T11:22:50.780Z,2.92
2019-03-25T11:25:18.839Z,3.00
2019-03-25T11:27:54.310Z,3.13
2019-03-25T11:30:15.654Z,3.17
2019-03-25T11:32:43.685Z,2.83
2019-03-25T11:35:11.714Z,3.08
2019-03-25T11:37:40.519Z,2.92
2019-03-25T11:40:08.579Z,2.80
2019-03-25T11:42:37.387Z,2.75
2019-03-25T11:45:05.420Z,2.78
2019-03-25T11:47:34.220Z,2.97
2019-03-25T11:50:03.031Z,2.85
2019-03-25T11:52:31.903Z,2.40
2019-03-25T11:54:59.937Z,2.42
2019-03-25T11:57:27.950Z,2.33
2019-03-25T11:59:55.982Z,2.90
2019-03-25T12:02:24.075Z,2.67
2019-03-25T12:04:52.972Z,2.35
2019-03-25T12:07:21.064Z,2.70
2019-03-25T12:09:49.830Z,2.83
2019-03-25T12:12:17.863Z,3.25
2019-03-25T12:14:45.892Z,3.63
2019-03-25T12:17:13.914Z,4.00
2019-03-25T12:19:41.977Z,4.20
2019-03-25T12:22:09.982Z,4.23
2019-03-25T12:24:38.010Z,3.55
2019-03-25T12:27:06.431Z,3.60
2019-03-25T12:29:34.700Z,3.50
2019-03-25T12:32:02.753Z,3.25
2019-03-25T12:34:30.893Z,3.42
2019-03-25T12:36:58.835Z,3.33
2019-03-25T12:39:26.894Z,2.40
2019-03-25T12:41:55.670Z,2.40
2019-03-25T12:44:23.715Z,2.00
2019-03-25T12:46:51.729Z,2.30
2019-03-25T12:49:19.780Z,2.30
2019-03-25T12:51:48.541Z,2.30
2019-03-25T12:54:15.851Z,2.33
2019-03-25T12:56:43.892Z,2.22
2019-03-25T12:59:11.970Z,2.08
2019-03-25T13:01:52.152Z,1.90
2019-03-25T13:04:08.803Z,1.92
2019-03-25T13:06:36.814Z,2.00
2019-03-25T13:09:04.868Z,2.05
2019-03-25T13:11:32.908Z,2.20
2019-03-25T13:14:01.728Z,2.10
2019-03-25T13:16:29.782Z,2.83
2019-03-25T13:18:58.590Z,2.87
2019-03-25T13:21:26.637Z,2.55
2019-03-25T13:23:54.688Z,2.30
2019-03-25T13:26:22.719Z,2.20
2019-03-25T13:29:01.131Z,2.30
2019-03-25T13:31:18.847Z,2.70
2019-03-25T13:33:46.948Z,3.60
2019-03-25T13:36:14.987Z,3.00
2019-03-25T13:38:43.035Z,2.60
2019-03-25T13:41:11.075Z,2.70
2019-03-25T13:43:39.170Z,2.70
2019-03-25T13:46:08.065Z,2.35
2019-03-25T13:48:36.146Z,2.50
2019-03-25T13:51:04.185Z,2.67
2019-03-25T13:53:32.203Z,2.40
2019-03-25T13:56:00.246Z,2.45
2019-03-25T13:58:28.285Z,2.72
2019-03-25T14:00:56.332Z,2.80
2019-03-25T14:03:24.359Z,2.95
2019-03-25T14:05:52.438Z,3.33
2019-03-25T14:08:20.514Z,3.30
2019-03-25T14:10:48.568Z,2.80
2019-03-25T14:13:16.640Z,2.87
2019-03-25T14:15:44.698Z,2.35
2019-03-25T14:18:13.499Z,2.40
2019-03-25T14:20:41.568Z,2.47
2019-03-25T14:23:09.611Z,1.80
2019-03-25T14:25:37.636Z,1.30
2019-03-25T14:28:05.685Z,1.40
2019-03-25T14:30:33.846Z,1.70
2019-03-25T14:33:02.633Z,2.50
2019-03-25T14:35:30.680Z,1.15
2019-03-25T14:37:58.730Z,1.10
2019-03-25T14:40:27.470Z,1.08
2019-03-25T14:42:56.241Z,1.00
2019-03-25T14:45:26.768Z,1.10
2019-03-25T14:47:53.182Z,1.30
2019-03-25T14:50:21.996Z,1.70
2019-03-25T14:52:50.048Z,2.10
2019-03-25T14:55:18.069Z,2.70
2019-03-25T14:57:46.098Z,2.50
2019-03-25T15:00:24.453Z,2.70
2019-03-25T15:02:42.244Z,2.50
2019-03-25T15:05:11.015Z,2.63
2019-03-25T15:07:39.824Z,2.83
2019-03-25T15:10:07.861Z,2.50
2019-03-25T15:12:36.586Z,2.70
2019-03-25T15:15:04.616Z,2.60
2019-03-25T15:17:32.736Z,2.70
2019-03-25T15:20:00.745Z,2.90
2019-03-25T15:22:28.790Z,2.83
2019-03-25T15:24:56.835Z,2.85
2019-03-25T15:27:24.871Z,2.60
2019-03-25T15:29:53.698Z,2.70
2019-03-25T15:32:21.835Z,2.50
2019-03-25T15:34:50.637Z,2.60
2019-03-25T15:37:19.444Z,2.60
2019-03-25T15:39:47.523Z,2.40
2019-03-25T15:42:15.567Z,2.10
2019-03-25T15:44:44.338Z,2.23
2019-03-25T15:47:13.179Z,1.80
2019-03-25T15:49:41.178Z,1.98
2019-03-25T15:52:09.228Z,1.90
2019-03-25T15:54:37.263Z,2.00
2019-03-25T15:57:06.148Z,2.10
2019-03-25T15:59:34.190Z,2.33
2019-03-25T16:02:02.309Z,2.45
2019-03-25T16:04:30.339Z,2.20
2019-03-25T16:06:59.148Z,2.33
2019-03-25T16:09:27.174Z,2.27
2019-03-25T16:11:55.219Z,2.17
2019-03-25T16:14:23.252Z,1.83
2019-03-25T16:16:51.295Z,1.80
2019-03-25T16:19:19.395Z,2.08
2019-03-25T16:21:47.432Z,1.60
2019-03-25T16:24:15.563Z,1.73
2019-03-25T16:26:43.586Z,1.60
2019-03-25T16:29:11.626Z,1.60
2019-03-25T16:31:39.696Z,1.40
2019-03-25T16:34:07.744Z,1.60
2019-03-25T16:36:35.808Z,1.70
2019-03-25T16:39:03.844Z,1.90
2019-03-25T16:41:32.637Z,2.10
2019-03-25T16:44:01.441Z,2.00
2019-03-25T16:46:29.503Z,2.15
2019-03-25T16:48:58.287Z,5.13
2019-03-25T16:51:26.331Z,8.85
2019-03-25T16:53:54.386Z,3.00
2019-03-25T16:56:22.378Z,3.10
2019-03-25T16:58:51.188Z,2.90
2019-03-25T17:01:19.267Z,2.70
2019-03-25T17:03:48.037Z,2.90
2019-03-25T17:06:16.070Z,2.60
2019-03-25T17:08:44.216Z,3.65
2019-03-25T17:11:12.367Z,4.10
2019-03-25T17:13:40.438Z,2.83
2019-03-25T17:16:08.454Z,2.90
2019-03-25T17:18:36.478Z,2.80
2019-03-25T17:21:04.523Z,3.58
2019-03-25T17:23:33.326Z,3.10
2019-03-25T17:26:01.358Z,4.00
2019-03-25T17:28:29.376Z,2.70
2019-03-25T17:30:57.400Z,2.12
2019-03-25T17:33:25.440Z,3.20
2019-03-25T17:35:53.470Z,3.42
2019-03-25T17:38:21.578Z,2.50
2019-03-25T17:40:49.617Z,2.08
2019-03-25T17:43:17.658Z,3.03
2019-03-25T17:45:45.692Z,2.00
2019-03-25T17:48:13.719Z,1.98
2019-03-25T17:50:41.751Z,2.03
2019-03-25T17:53:11.299Z,3.35
2019-03-25T17:55:39.342Z,2.55
2019-03-25T17:58:08.324Z,2.30
2019-03-25T18:00:58.574Z,2.90
2019-03-25T18:03:26.620Z,2.30
2019-03-25T18:05:54.650Z,2.20
2019-03-25T18:08:22.694Z,1.70
2019-03-25T18:10:50.826Z,1.65
2019-03-25T18:13:22.616Z,1.42
2019-03-25T18:15:46.905Z,1.20
2019-03-25T18:18:15.038Z,1.80
2019-03-25T18:20:43.071Z,1.20
2019-03-25T18:23:11.123Z,1.17
2019-03-25T18:25:39.135Z,1.00
2019-03-25T18:28:08.042Z,2.40
2019-03-25T18:30:36.096Z,1.20
2019-03-25T18:33:04.112Z,1.20
2019-03-25T18:35:32.159Z,0.80
2019-03-25T18:38:00.327Z,0.70
2019-03-25T18:40:28.422Z,0.90
2019-03-25T18:42:56.548Z,1.02
2019-03-25T18:45:24.554Z,1.87
2019-03-25T18:47:53.406Z,2.33
2019-03-25T18:50:20.650Z,2.72
2019-03-25T18:52:49.438Z,1.90
2019-03-25T18:55:17.491Z,2.10
2019-03-25T18:57:45.614Z,1.90
2019-03-25T19:00:17.408Z,1.90
2019-03-25T19:02:45.462Z,1.65
2019-03-25T19:05:13.479Z,2.80
2019-03-25T19:07:42.271Z,3.55
2019-03-25T19:10:14.403Z,4.60
2019-03-25T19:12:39.852Z,3.22
2019-03-25T19:15:08.699Z,2.80
2019-03-25T19:17:36.702Z,2.17
2019-03-25T19:20:04.747Z,2.30
2019-03-25T19:22:32.780Z,1.90
2019-03-25T19:25:00.814Z,2.17
2019-03-25T19:27:29.629Z,1.83
2019-03-25T19:29:58.407Z,2.00
2019-03-25T19:32:26.444Z,1.50
2019-03-25T19:34:54.545Z,1.73
2019-03-25T19:37:22.598Z,1.27
2019-03-25T19:39:51.401Z,1.55
2019-03-25T19:42:19.466Z,2.42
2019-03-25T19:44:47.501Z,1.85
2019-03-25T19:47:15.493Z,1.70
2019-03-25T19:49:44.334Z,2.10
2019-03-25T19:52:12.361Z,2.10
2019-03-25T19:54:40.393Z,1.75
2019-03-25T19:57:08.573Z,2.28
2019-03-25T19:59:36.558Z,2.00
2019-03-25T20:02:05.354Z,2.10
2019-03-25T20:04:34.256Z,2.15
2019-03-25T20:07:02.311Z,2.37
2019-03-25T20:09:30.427Z,2.08
2019-03-25T20:11:59.205Z,2.40
2019-03-25T20:14:28.095Z,2.40
2019-03-25T20:16:56.134Z,2.75
2019-03-25T20:19:24.219Z,3.20
2019-03-25T20:21:52.326Z,3.40
2019-03-25T20:24:20.376Z,3.30
2019-03-25T20:26:49.144Z,3.20
2019-03-25T20:29:17.184Z,3.33
2019-03-25T20:31:45.443Z,3.70
2019-03-25T20:34:13.446Z,3.37
2019-03-25T20:36:42.302Z,3.50
2019-03-25T20:39:11.083Z,3.60
2019-03-25T20:41:39.138Z,3.53
2019-03-25T20:44:07.181Z,3.50
2019-03-25T20:46:35.267Z,3.90
2019-03-25T20:49:03.301Z,3.87
2019-03-25T20:51:32.108Z,4.07
2019-03-25T20:54:00.134Z,4.15
2019-03-25T20:56:28.154Z,4.28
2019-03-25T20:58:56.218Z,5.20
2019-03-25T21:01:24.330Z,5.10
2019-03-25T21:03:52.358Z,4.85
2019-03-25T21:06:20.398Z,3.80
2019-03-25T21:08:48.450Z,4.50
2019-03-25T21:11:16.502Z,6.72
2019-03-25T21:13:44.548Z,5.00
2019-03-25T21:16:12.532Z,4.00
2019-03-25T21:18:40.618Z,3.25
2019-03-25T21:21:09.389Z,3.60
2019-03-25T21:23:38.821Z,3.58
2019-03-25T21:26:06.842Z,3.20
2019-03-25T21:28:35.670Z,3.55
2019-03-25T21:31:03.742Z,3.53
2019-03-25T21:33:31.781Z,3.75
2019-03-25T21:35:59.877Z,3.95
2019-03-25T21:38:27.870Z,3.83
2019-03-25T21:40:56.046Z,4.03
2019-03-25T21:43:24.025Z,4.10
2019-03-25T21:45:52.048Z,3.97
2019-03-25T21:48:20.115Z,4.10
2019-03-25T21:50:48.126Z,4.03
2019-03-25T21:53:16.888Z,3.70
2019-03-25T21:55:44.911Z,4.00
2019-03-25T21:58:13.024Z,3.70
2019-03-25T22:00:41.148Z,3.20
2019-03-25T22:03:12.157Z,3.25
2019-03-25T22:05:37.231Z,3.20
2019-03-25T22:08:05.271Z,3.42
2019-03-25T22:10:33.324Z,3.28
2019-03-25T22:13:02.220Z,3.25
2019-03-25T22:15:30.246Z,3.00
2019-03-25T22:17:58.287Z,3.00
2019-03-25T22:20:26.310Z,2.63
2019-03-25T22:22:55.107Z,3.00
2019-03-25T22:25:23.932Z,2.90
2019-03-25T22:27:51.963Z,2.80
2019-03-25T22:30:20.776Z,3.00
2019-03-25T22:32:48.807Z,2.78
2019-03-25T22:35:16.832Z,3.27
2019-03-25T22:37:44.862Z,3.10
2019-03-25T22:40:13.674Z,3.30
2019-03-25T22:42:41.706Z,3.50
2019-03-25T22:45:10.527Z,3.40
2019-03-25T22:47:38.592Z,3.40
2019-03-25T22:50:07.423Z,3.55
2019-03-25T22:52:35.460Z,3.83
2019-03-25T22:55:03.501Z,3.70
2019-03-25T22:57:32.299Z,3.83
2019-03-25T23:00:00.362Z,4.10
2019-03-25T23:02:28.435Z,3.90
2019-03-25T23:04:56.872Z,4.00
2019-03-25T23:07:24.876Z,3.60
2019-03-25T23:09:53.708Z,3.87
2019-03-25T23:12:21.735Z,4.07
2019-03-25T23:14:50.660Z,3.90
2019-03-25T23:17:18.685Z,4.07
2019-03-25T23:19:46.726Z,4.07
2019-03-25T23:22:14.744Z,4.30
2019-03-25T23:24:42.824Z,4.03
2019-03-25T23:27:10.861Z,4.37
2019-03-25T23:29:38.882Z,4.45
2019-03-25T23:32:06.943Z,4.37
2019-03-25T23:34:35.823Z,4.30
2019-03-25T23:37:03.886Z,4.68
2019-03-25T23:39:31.920Z,5.22
2019-03-25T23:41:59.958Z,4.90
2019-03-25T23:44:27.999Z,5.17
2019-03-25T23:46:56.051Z,5.40
2019-03-25T23:49:24.861Z,5.80
2019-03-25T23:51:52.893Z,5.70
2019-03-25T23:54:20.920Z,5.75
2019-03-25T23:56:49.065Z,6.00
2019-03-25T23:59:17.099Z,5.78
